createdAt,value
2018-08-30T00:01:17.657Z,16.27
2018-08-30T00:03:48.133Z,13.07
2018-08-30T00:06:18.716Z,21.00
2018-08-30T00:08:49.256Z,18.33
2018-08-30T00:11:19.953Z,26.57
2018-08-30T00:13:50.491Z,29.00
2018-08-30T00:16:21.052Z,28.13
2018-08-30T00:18:51.320Z,18.93
2018-08-30T00:21:21.776Z,17.37
2018-08-30T00:23:52.336Z,17.10
2018-08-30T00:26:22.836Z,23.23
2018-08-30T00:28:53.342Z,29.70
2018-08-30T00:31:23.702Z,22.47
2018-08-30T00:33:54.067Z,20.97
2018-08-30T00:36:24.396Z,25.47
2018-08-30T00:38:54.892Z,29.23
2018-08-30T00:41:25.498Z,25.97
2018-08-30T00:43:56.017Z,25.53
2018-08-30T00:46:26.255Z,29.10
2018-08-30T00:48:56.627Z,28.97
2018-08-30T00:51:27.044Z,35.93
2018-08-30T00:53:57.280Z,36.13
2018-08-30T00:56:27.678Z,36.87
2018-08-30T00:58:58.119Z,39.47
2018-08-30T01:01:29.052Z,36.73
2018-08-30T01:03:59.644Z,38.10
2018-08-30T01:09:06.088Z,34.83
2018-08-30T01:11:36.757Z,41.57
2018-08-30T01:14:07.200Z,43.17
2018-08-30T01:16:37.723Z,40.10
2018-08-30T01:19:08.164Z,45.00
2018-08-30T01:21:38.500Z,43.10
2018-08-30T01:24:08.912Z,55.67
2018-08-30T01:26:39.545Z,52.53
2018-08-30T01:29:10.068Z,50.77
2018-08-30T01:31:40.618Z,60.77
2018-08-30T01:34:13.170Z,53.73
2018-08-30T01:36:44.595Z,48.60
2018-08-30T01:39:15.201Z,55.37
2018-08-30T01:41:45.707Z,51.50
2018-08-30T01:44:16.043Z,56.33
2018-08-30T01:46:46.439Z,57.13
2018-08-30T01:49:16.849Z,57.00
2018-08-30T01:51:47.211Z,54.53
2018-08-30T01:54:17.438Z,61.97
2018-08-30T01:56:47.879Z,58.03
2018-08-30T01:59:18.383Z,55.87
2018-08-30T02:01:48.829Z,60.00
2018-08-30T02:04:19.405Z,49.80
2018-08-30T02:06:49.776Z,63.83
2018-08-30T02:09:20.195Z,58.00
2018-08-30T02:11:50.546Z,51.90
2018-08-30T02:14:20.951Z,55.30
2018-08-30T02:16:51.459Z,51.83
2018-08-30T02:19:21.840Z,57.93
2018-08-30T02:21:52.224Z,53.70
2018-08-30T02:24:22.702Z,53.13
2018-08-30T02:26:53.280Z,62.13
2018-08-30T02:29:24.216Z,59.70
2018-08-30T02:31:54.639Z,50.47
2018-08-30T02:34:25.104Z,48.53
2018-08-30T02:36:55.574Z,53.10
2018-08-30T02:39:25.909Z,54.97
2018-08-30T02:41:56.228Z,50.30
2018-08-30T02:44:26.675Z,53.30
2018-08-30T02:46:57.095Z,57.97
2018-08-30T02:49:27.693Z,60.47
2018-08-30T02:51:58.194Z,63.63
2018-08-30T02:54:28.837Z,61.67
2018-08-30T02:56:59.199Z,60.40
2018-08-30T02:59:29.618Z,58.60
2018-08-30T03:02:00.198Z,62.60
2018-08-30T03:04:30.794Z,69.63
2018-08-30T03:07:01.399Z,73.40
2018-08-30T03:09:31.803Z,74.00
2018-08-30T03:12:02.128Z,64.70
2018-08-30T03:14:32.637Z,66.03
2018-08-30T03:17:03.932Z,69.47
2018-08-30T03:19:34.344Z,63.30
2018-08-30T03:22:04.796Z,66.77
2018-08-30T03:24:35.256Z,59.13
2018-08-30T03:27:05.868Z,55.37
2018-08-30T03:29:36.267Z,56.57
2018-08-30T03:32:06.636Z,55.50
2018-08-30T03:34:37.020Z,60.77
2018-08-30T03:37:07.495Z,52.67
2018-08-30T03:39:37.875Z,53.80
2018-08-30T03:42:08.332Z,53.63
2018-08-30T03:44:38.642Z,58.50
2018-08-30T03:47:09.093Z,52.63
2018-08-30T03:49:39.912Z,54.83
2018-08-30T03:52:10.882Z,58.00
2018-08-30T03:54:41.159Z,55.17
2018-08-30T03:57:11.636Z,51.33
2018-08-30T03:59:42.139Z,52.60
2018-08-30T04:02:12.611Z,61.93
2018-08-30T04:04:43.009Z,46.10
2018-08-30T04:07:13.392Z,40.47
2018-08-30T04:09:43.868Z,45.80
2018-08-30T04:12:14.320Z,45.50
2018-08-30T04:14:44.955Z,39.70
2018-08-30T04:17:15.400Z,36.30
2018-08-30T04:19:45.660Z,38.37
2018-08-30T04:22:16.108Z,37.73
2018-08-30T04:24:46.996Z,36.10
2018-08-30T04:27:17.475Z,37.23
2018-08-30T04:29:47.916Z,32.43
2018-08-30T04:32:18.418Z,31.03
2018-08-30T04:34:48.897Z,30.33
2018-08-30T04:37:19.264Z,35.50
2018-08-30T04:39:49.531Z,36.83
2018-08-30T04:42:20.055Z,35.00
2018-08-30T04:44:50.265Z,35.47
2018-08-30T04:47:20.560Z,39.33
2018-08-30T04:49:50.843Z,32.60
2018-08-30T04:52:21.223Z,37.23
2018-08-30T04:54:51.649Z,37.00
2018-08-30T04:57:21.948Z,36.67
2018-08-30T04:59:52.365Z,36.63
2018-08-30T05:02:22.827Z,41.10
2018-08-30T05:04:53.376Z,39.53
2018-08-30T05:07:24.394Z,35.87
2018-08-30T05:09:54.892Z,32.93
2018-08-30T05:12:25.063Z,37.40
2018-08-30T05:14:55.452Z,33.63
2018-08-30T05:17:25.813Z,38.23
2018-08-30T05:19:56.288Z,35.37
2018-08-30T05:22:26.769Z,36.23
2018-08-30T05:24:57.227Z,30.30
2018-08-30T05:27:27.492Z,32.57
2018-08-30T05:29:57.997Z,29.87
2018-08-30T05:32:28.553Z,32.50
2018-08-30T05:34:59.040Z,31.43
2018-08-30T05:37:29.491Z,31.10
2018-08-30T05:40:00.334Z,32.47
2018-08-30T05:42:30.963Z,36.17
2018-08-30T05:45:01.325Z,36.23
2018-08-30T05:47:31.895Z,35.80
2018-08-30T05:50:02.312Z,35.10
2018-08-30T05:52:32.900Z,32.87
2018-08-30T05:55:03.721Z,36.90
2018-08-30T05:57:34.347Z,29.93
2018-08-30T06:00:04.830Z,31.07
2018-08-30T06:02:35.108Z,35.73
2018-08-30T06:05:05.540Z,31.27
2018-08-30T06:07:35.843Z,27.80
2018-08-30T06:10:06.447Z,28.60
2018-08-30T06:12:37.124Z,27.73
2018-08-30T06:15:07.820Z,29.83
2018-08-30T06:17:38.349Z,35.13
2018-08-30T06:20:08.941Z,40.47
2018-08-30T06:22:39.312Z,34.43
2018-08-30T06:25:09.769Z,37.60
2018-08-30T06:27:40.241Z,41.53
2018-08-30T06:30:10.877Z,39.80
2018-08-30T06:32:41.280Z,43.70
2018-08-30T06:35:11.531Z,35.00
2018-08-30T06:37:42.168Z,32.87
2018-08-30T06:40:12.655Z,30.93
2018-08-30T06:42:43.131Z,30.70
2018-08-30T06:45:13.680Z,33.93
2018-08-30T06:47:44.184Z,33.57
2018-08-30T06:50:14.659Z,34.40
2018-08-30T06:52:45.026Z,35.33
2018-08-30T06:55:15.491Z,30.80
2018-08-30T06:57:45.788Z,39.27
2018-08-30T07:00:16.277Z,27.07
2018-08-30T07:02:46.859Z,28.90
2018-08-30T07:05:17.595Z,30.43
2018-08-30T07:07:48.056Z,31.93
2018-08-30T07:10:18.585Z,24.57
2018-08-30T07:12:48.906Z,23.53
2018-08-30T07:15:19.495Z,22.80
2018-08-30T07:17:49.992Z,23.03
2018-08-30T07:20:20.487Z,20.43
2018-08-30T07:22:50.974Z,18.77
2018-08-30T07:25:21.447Z,20.47
2018-08-30T07:27:51.798Z,25.30
2018-08-30T07:30:22.213Z,26.70
2018-08-30T07:32:52.767Z,26.43
2018-08-30T07:35:23.279Z,31.40
2018-08-30T07:37:53.675Z,36.33
2018-08-30T07:40:23.999Z,31.03
2018-08-30T07:42:54.382Z,29.90
2018-08-30T07:45:24.692Z,36.87
2018-08-30T07:47:55.044Z,33.73
2018-08-30T07:50:25.427Z,32.20
2018-08-30T07:52:56.475Z,31.70
2018-08-30T07:55:27.440Z,33.10
2018-08-30T07:57:57.820Z,34.27
2018-08-30T08:00:28.311Z,29.93
2018-08-30T08:02:58.630Z,31.90
2018-08-30T08:05:29.072Z,34.47
2018-08-30T08:07:59.312Z,31.37
2018-08-30T08:10:29.808Z,32.07
2018-08-30T08:13:00.185Z,37.87
2018-08-30T08:15:30.608Z,33.17
2018-08-30T08:18:01.040Z,33.57
2018-08-30T08:20:31.657Z,32.53
2018-08-30T08:23:02.109Z,39.00
2018-08-30T08:25:32.509Z,34.13
2018-08-30T08:28:02.977Z,31.93
2018-08-30T08:30:33.572Z,39.00
2018-08-30T08:33:03.831Z,36.00
2018-08-30T08:35:34.308Z,35.77
2018-08-30T08:38:04.768Z,36.67
2018-08-30T08:40:35.192Z,34.93
2018-08-30T08:43:06.835Z,34.40
2018-08-30T08:45:37.308Z,36.60
2018-08-30T08:48:07.844Z,32.70
2018-08-30T08:50:38.452Z,32.10
2018-08-30T08:53:09.108Z,36.00
2018-08-30T08:55:39.455Z,33.97
2018-08-30T08:58:09.808Z,32.37
2018-08-30T09:00:40.312Z,31.50
2018-08-30T09:03:10.895Z,30.67
2018-08-30T09:05:41.369Z,33.83
2018-08-30T09:08:11.878Z,33.70
2018-08-30T09:10:42.435Z,34.80
2018-08-30T09:13:12.998Z,31.80
2018-08-30T09:15:43.293Z,34.53
2018-08-30T09:18:13.795Z,32.87
2018-08-30T09:20:44.237Z,30.33
2018-08-30T09:23:14.728Z,33.13
2018-08-30T09:25:45.148Z,32.60
2018-08-30T09:28:15.500Z,28.20
2018-08-30T09:30:45.873Z,31.23
2018-08-30T09:33:16.180Z,30.87
2018-08-30T09:35:46.741Z,27.50
2018-08-30T09:38:17.386Z,30.30
2018-08-30T09:40:47.647Z,31.30
2018-08-30T09:43:18.053Z,31.77
2018-08-30T09:45:48.515Z,39.47
2018-08-30T09:48:19.092Z,30.13
2018-08-30T09:50:49.387Z,28.73
2018-08-30T09:53:19.999Z,27.27
2018-08-30T09:55:50.414Z,28.20
2018-08-30T09:58:20.895Z,24.87
2018-08-30T10:00:56.379Z,28.30
2018-08-30T10:03:26.771Z,30.13
2018-08-30T10:05:57.343Z,25.97
2018-08-30T10:08:28.345Z,24.37
2018-08-30T10:10:58.999Z,32.67
2018-08-30T10:13:29.521Z,26.93
2018-08-30T10:15:59.836Z,28.00
2018-08-30T10:18:30.180Z,24.17
2018-08-30T10:21:00.419Z,20.67
2018-08-30T10:23:30.809Z,22.30
2018-08-30T10:26:01.377Z,21.53
2018-08-30T10:28:31.884Z,23.90
2018-08-30T10:31:02.132Z,20.73
2018-08-30T10:33:32.415Z,24.20
2018-08-30T10:36:02.925Z,20.40
2018-08-30T10:38:33.383Z,20.87
2018-08-30T10:41:03.873Z,19.37
2018-08-30T10:43:34.289Z,19.00
2018-08-30T10:46:04.524Z,24.50
2018-08-30T10:48:34.803Z,23.43
2018-08-30T10:51:05.401Z,20.93
2018-08-30T10:53:36.080Z,21.03
2018-08-30T10:56:06.745Z,19.93
2018-08-30T10:58:37.364Z,21.30
2018-08-30T11:01:08.719Z,20.00
2018-08-30T11:03:40.047Z,25.23
2018-08-30T11:06:10.172Z,18.90
2018-08-30T11:08:40.744Z,19.90
2018-08-30T11:11:11.268Z,20.27
2018-08-30T11:13:42.643Z,22.60
2018-08-30T11:16:13.045Z,19.13
2018-08-30T11:18:43.688Z,22.83
2018-08-30T11:21:14.255Z,23.70
2018-08-30T11:23:44.648Z,22.70
2018-08-30T11:26:15.068Z,33.07
2018-08-30T11:28:45.535Z,22.70
2018-08-30T11:31:15.840Z,22.20
2018-08-30T11:33:46.199Z,24.20
2018-08-30T11:36:16.595Z,27.50
2018-08-30T11:38:47.121Z,26.53
2018-08-30T11:41:17.503Z,25.93
2018-08-30T11:43:48.083Z,29.00
2018-08-30T11:46:18.532Z,28.23
2018-08-30T11:48:48.854Z,24.80
2018-08-30T11:51:19.269Z,26.70
2018-08-30T11:53:50.390Z,20.23
2018-08-30T11:56:20.849Z,24.10
2018-08-30T11:58:51.301Z,22.20
2018-08-30T12:01:21.725Z,23.27
2018-08-30T12:03:52.400Z,15.60
2018-08-30T12:06:22.940Z,12.60
2018-08-30T12:08:53.487Z,14.47
2018-08-30T12:11:23.798Z,12.53
2018-08-30T12:13:54.227Z,18.00
2018-08-30T12:16:24.631Z,12.90
2018-08-30T12:18:55.337Z,12.60
2018-08-30T12:21:25.925Z,14.40
2018-08-30T12:23:56.361Z,14.93
2018-08-30T12:26:27.076Z,14.90
2018-08-30T12:28:57.599Z,16.70
2018-08-30T12:31:28.151Z,14.73
2018-08-30T12:33:58.503Z,15.60
2018-08-30T12:36:28.955Z,15.57
2018-08-30T12:38:59.425Z,17.67
2018-08-30T12:41:29.634Z,25.63
2018-08-30T12:44:01.231Z,17.20
2018-08-30T12:46:31.586Z,20.60
2018-08-30T12:49:02.084Z,14.30
2018-08-30T12:51:32.715Z,16.00
2018-08-30T12:54:03.410Z,16.20
2018-08-30T12:56:33.677Z,19.33
2018-08-30T12:59:09.233Z,22.80
2018-08-30T13:01:40.010Z,18.20
2018-08-30T13:04:10.568Z,18.70
2018-08-30T13:06:50.033Z,15.90
2018-08-30T13:09:20.402Z,16.03
2018-08-30T13:11:51.001Z,13.47
2018-08-30T13:14:21.297Z,16.73
2018-08-30T13:16:51.786Z,11.73
2018-08-30T13:19:22.747Z,13.30
2018-08-30T13:21:53.204Z,12.30
2018-08-30T13:24:23.710Z,13.83
2018-08-30T13:26:54.344Z,13.50
2018-08-30T13:29:24.793Z,12.10
2018-08-30T13:31:55.395Z,13.00
2018-08-30T13:34:26.028Z,8.60
2018-08-30T13:36:56.559Z,9.77
2018-08-30T13:39:26.953Z,13.33
2018-08-30T13:41:57.459Z,10.80
2018-08-30T13:44:27.890Z,15.80
2018-08-30T13:46:58.143Z,14.87
2018-08-30T13:49:28.545Z,14.33
2018-08-30T13:51:59.357Z,21.50
2018-08-30T13:54:29.747Z,14.80
2018-08-30T13:57:00.121Z,15.07
2018-08-30T13:59:30.827Z,14.57
2018-08-30T14:02:00.912Z,10.77
2018-08-30T14:04:31.282Z,11.03
2018-08-30T14:07:02.517Z,10.03
2018-08-30T14:09:32.684Z,11.20
2018-08-30T14:12:03.598Z,10.73
2018-08-30T14:14:33.807Z,11.40
2018-08-30T14:17:03.946Z,11.50
2018-08-30T14:19:34.333Z,10.67
2018-08-30T14:22:04.793Z,11.30
2018-08-30T14:24:35.373Z,10.23
2018-08-30T14:27:06.101Z,12.23
2018-08-30T14:29:37.088Z,10.30
2018-08-30T14:32:07.919Z,10.60
2018-08-30T14:34:38.263Z,12.37
2018-08-30T14:37:08.619Z,11.40
2018-08-30T14:39:39.019Z,12.33
2018-08-30T14:42:09.587Z,8.60
2018-08-30T14:44:39.987Z,7.30
2018-08-30T14:47:10.620Z,12.80
2018-08-30T14:49:41.529Z,11.17
2018-08-30T14:52:12.210Z,11.43
2018-08-30T14:54:42.701Z,12.03
2018-08-30T14:57:13.177Z,11.87
2018-08-30T14:59:43.692Z,12.03
2018-08-30T15:02:13.820Z,9.87
2018-08-30T15:04:45.251Z,9.00
2018-08-30T15:07:15.844Z,10.97
2018-08-30T15:09:47.706Z,10.40
2018-08-30T15:12:18.127Z,11.33
2018-08-30T15:14:48.801Z,7.30
2018-08-30T15:17:19.961Z,5.60
2018-08-30T15:19:50.397Z,5.87
2018-08-30T15:22:21.064Z,5.77
2018-08-30T15:24:51.625Z,6.30
2018-08-30T15:27:22.213Z,5.00
2018-08-30T15:29:52.612Z,3.40
2018-08-30T15:32:23.072Z,4.23
2018-08-30T15:34:53.408Z,7.27
2018-08-30T15:37:23.796Z,4.80
2018-08-30T15:39:54.288Z,8.87
2018-08-30T15:42:24.744Z,5.70
2018-08-30T15:44:55.262Z,12.50
2018-08-30T15:47:25.870Z,7.17
2018-08-30T15:49:56.390Z,11.60
2018-08-30T15:52:26.956Z,5.77
2018-08-30T15:54:57.463Z,9.00
2018-08-30T15:57:28.232Z,10.60
2018-08-30T15:59:58.703Z,11.23
2018-08-30T16:02:29.082Z,9.57
2018-08-30T16:04:59.529Z,9.03
2018-08-30T16:07:30.038Z,8.70
2018-08-30T16:10:00.547Z,11.63
2018-08-30T16:12:31.096Z,9.80
2018-08-30T16:15:01.616Z,6.80
2018-08-30T16:17:34.954Z,11.77
2018-08-30T16:20:05.643Z,9.07
2018-08-30T16:23:41.667Z,8.97
2018-08-30T16:26:12.253Z,8.80
2018-08-30T16:28:43.453Z,9.60
2018-08-30T16:31:13.993Z,8.27
2018-08-30T16:33:44.210Z,8.97
2018-08-30T16:36:14.707Z,18.20
2018-08-30T16:38:45.448Z,13.63
2018-08-30T16:41:15.848Z,14.13
2018-08-30T16:43:46.392Z,8.57
2018-08-30T16:46:16.888Z,9.20
2018-08-30T16:48:47.479Z,13.00
2018-08-30T16:51:17.957Z,13.00
2018-08-30T16:53:48.652Z,8.13
2018-08-30T16:56:19.230Z,16.53
2018-08-30T16:58:49.634Z,11.50
2018-08-30T17:01:19.997Z,17.20
2018-08-30T17:03:50.552Z,22.20
2018-08-30T17:06:21.159Z,12.60
2018-08-30T17:08:51.809Z,13.43
2018-08-30T17:11:22.351Z,10.67
2018-08-30T17:13:52.939Z,16.13
2018-08-30T17:16:23.663Z,13.23
2018-08-30T17:18:58.477Z,14.23
2018-08-30T17:21:29.074Z,12.83
2018-08-30T17:23:59.593Z,10.10
2018-08-30T17:26:30.127Z,16.37
2018-08-30T17:29:01.224Z,10.53
2018-08-30T17:31:31.784Z,31.30
2018-08-30T17:34:02.375Z,12.17
2018-08-30T17:36:33.020Z,11.83
2018-08-30T17:39:03.660Z,6.93
2018-08-30T17:41:34.336Z,13.87
2018-08-30T17:44:04.842Z,8.83
2018-08-30T17:46:35.463Z,13.40
2018-08-30T17:49:06.016Z,9.60
2018-08-30T17:51:36.684Z,14.93
2018-08-30T17:54:07.448Z,10.03
2018-08-30T17:56:38.077Z,13.27
2018-08-30T17:59:08.941Z,14.63
2018-08-30T18:01:39.662Z,10.33
2018-08-30T18:04:10.407Z,10.77
2018-08-30T18:06:41.055Z,7.43
2018-08-30T18:09:11.842Z,9.37
2018-08-30T18:11:42.391Z,7.60
2018-08-30T18:14:13.143Z,10.20
2018-08-30T18:16:43.877Z,8.60
2018-08-30T18:19:14.511Z,10.57
2018-08-30T18:21:45.146Z,6.13
2018-08-30T18:24:15.918Z,9.03
2018-08-30T18:26:46.708Z,11.13
2018-08-30T18:29:17.428Z,10.27
2018-08-30T18:31:48.008Z,10.30
2018-08-30T18:34:18.663Z,11.07
2018-08-30T18:36:49.356Z,7.70
2018-08-30T18:39:20.136Z,9.50
2018-08-30T18:41:51.077Z,13.20
2018-08-30T18:44:22.136Z,17.07
2018-08-30T18:46:53.162Z,7.40
2018-08-30T18:49:24.518Z,12.90
2018-08-30T18:51:55.490Z,13.83
2018-08-30T18:54:26.580Z,17.73
2018-08-30T18:56:57.649Z,14.27
2018-08-30T18:59:28.861Z,9.20
2018-08-30T19:02:00.181Z,9.73
2018-08-30T19:04:31.332Z,11.63
2018-08-30T19:07:02.744Z,11.53
2018-08-30T19:09:33.974Z,6.77
2018-08-30T19:12:05.039Z,20.77
2018-08-30T19:14:36.119Z,13.93
2018-08-30T19:17:13.257Z,10.57
2018-08-30T19:19:44.105Z,7.03
2018-08-30T19:22:15.394Z,16.10
2018-08-30T19:24:53.389Z,8.80
2018-08-30T19:27:24.919Z,20.93
2018-08-30T19:30:00.933Z,13.70
2018-08-30T19:32:32.250Z,13.40
2018-08-30T19:35:08.024Z,6.97
2018-08-30T19:37:39.181Z,6.93
2018-08-30T19:40:13.954Z,12.13
2018-08-30T19:42:44.656Z,8.23
2018-08-30T19:45:15.291Z,13.80
2018-08-30T19:47:45.872Z,12.77
2018-08-30T19:50:16.496Z,7.17
2018-08-30T19:52:47.037Z,13.50
2018-08-30T19:55:17.699Z,16.53
2018-08-30T19:57:48.379Z,12.60
2018-08-30T20:00:18.965Z,15.33
2018-08-30T20:02:49.425Z,14.50
2018-08-30T20:05:20.212Z,12.17
2018-08-30T20:07:50.699Z,13.17
2018-08-30T20:10:21.455Z,13.70
2018-08-30T20:12:51.769Z,9.30
2018-08-30T20:15:22.456Z,10.97
2018-08-30T20:17:53.913Z,11.97
2018-08-30T20:20:24.532Z,13.53
2018-08-30T20:22:55.032Z,10.67
2018-08-30T20:25:25.709Z,14.20
2018-08-30T20:27:56.229Z,11.03
2018-08-30T20:30:26.867Z,12.30
2018-08-30T20:32:57.513Z,10.27
2018-08-30T20:35:28.122Z,10.87
2018-08-30T20:37:58.684Z,8.80
2018-08-30T20:40:29.459Z,9.30
2018-08-30T20:43:00.288Z,9.20
2018-08-30T20:45:30.761Z,11.20
2018-08-30T20:48:01.204Z,9.57
2018-08-30T20:50:32.329Z,20.27
2018-08-30T20:53:02.752Z,8.37
2018-08-30T20:55:33.100Z,7.77
2018-08-30T20:58:03.592Z,15.43
2018-08-30T21:00:34.095Z,10.80
2018-08-30T21:03:04.769Z,16.33
2018-08-30T21:05:35.285Z,6.90
2018-08-30T21:08:05.744Z,15.77
2018-08-30T21:10:36.296Z,8.57
2018-08-30T21:13:06.822Z,6.23
2018-08-30T21:15:37.307Z,20.43
2018-08-30T21:18:07.805Z,10.67
2018-08-30T21:20:39.010Z,13.13
2018-08-30T21:23:09.473Z,12.40
2018-08-30T21:25:40.052Z,11.27
2018-08-30T21:28:10.523Z,9.50
2018-08-30T21:30:41.035Z,8.20
2018-08-30T21:33:11.363Z,13.07
2018-08-30T21:35:41.832Z,19.43
2018-08-30T21:38:12.221Z,10.03
2018-08-30T21:40:42.626Z,12.90
2018-08-30T21:43:13.292Z,10.40
2018-08-30T21:45:43.664Z,11.17
2018-08-30T21:48:15.084Z,13.60
2018-08-30T21:50:45.501Z,10.83
2018-08-30T21:53:15.984Z,9.37
2018-08-30T21:55:46.862Z,10.43
2018-08-30T21:58:17.256Z,16.40
2018-08-30T22:00:48.062Z,11.07
2018-08-30T22:03:18.503Z,15.57
2018-08-30T22:05:48.817Z,11.50
2018-08-30T22:08:19.160Z,13.90
2018-08-30T22:10:49.564Z,10.00
2018-08-30T22:13:20.147Z,10.47
2018-08-30T22:15:50.600Z,17.63
2018-08-30T22:18:20.794Z,15.77
2018-08-30T22:20:51.296Z,11.33
2018-08-30T22:23:21.825Z,11.10
2018-08-30T22:25:52.524Z,10.33
2018-08-30T22:28:22.906Z,10.00
2018-08-30T22:30:53.363Z,10.60
2018-08-30T22:33:23.815Z,16.17
2018-08-30T22:35:54.320Z,10.13
2018-08-30T22:38:24.619Z,10.70
2018-08-30T22:40:55.739Z,7.60
2018-08-30T22:43:28.632Z,11.10
2018-08-30T22:45:59.139Z,6.67
2018-08-30T22:48:29.640Z,8.47
2018-08-30T22:50:59.872Z,15.47
2018-08-30T22:53:30.168Z,14.53
2018-08-30T22:56:00.643Z,8.13
2018-08-30T22:58:31.058Z,9.67
2018-08-30T23:01:01.278Z,10.70
2018-08-30T23:03:31.578Z,10.03
2018-08-30T23:06:01.890Z,17.60
2018-08-30T23:08:32.379Z,12.63
2018-08-30T23:11:02.879Z,9.90
2018-08-30T23:13:33.215Z,16.80
2018-08-30T23:16:03.653Z,8.90
2018-08-30T23:18:34.092Z,14.23
2018-08-30T23:21:05.308Z,11.70
2018-08-30T23:23:35.727Z,5.13
2018-08-30T23:26:06.201Z,19.07
2018-08-30T23:28:36.408Z,22.03
2018-08-30T23:31:07.040Z,11.30
2018-08-30T23:33:37.567Z,6.97
2018-08-30T23:36:08.253Z,5.03
2018-08-30T23:38:38.636Z,11.23
2018-08-30T23:41:09.212Z,8.43
2018-08-30T23:43:39.711Z,8.77
2018-08-30T23:46:10.177Z,18.43
2018-08-30T23:48:40.460Z,8.23
2018-08-30T23:51:10.951Z,4.00
2018-08-30T23:53:41.350Z,9.23
2018-08-30T23:56:11.783Z,8.03
2018-08-30T23:58:59.102Z,16.63
